sensor_id;sensor_type;location;lat;lon;timestamp;temperature;humidity
32809;DHT22;19159;48.178;16.386;2023-08-21T00:01:18;29.40;91.10
32809;DHT22;19159;48.178;16.386;2023-08-21T00:03:46;29.40;91.10
32809;DHT22;19159;48.178;16.386;2023-08-21T00:06:12;29.30;91.20
32809;DHT22;19159;48.178;16.386;2023-08-21T00:08:37;29.20;91.30
32809;DHT22;19159;48.178;16.386;2023-08-21T00:11:03;29.10;91.40
32809;DHT22;19159;48.178;16.386;2023-08-21T00:13:29;29.00;91.90
32809;DHT22;19159;48.178;16.386;2023-08-21T00:15:54;29.00;91.60
32809;DHT22;19159;48.178;16.386;2023-08-21T00:18:21;28.90;91.70
32809;DHT22;19159;48.178;16.386;2023-08-21T00:20:47;28.80;91.90
32809;DHT22;19159;48.178;16.386;2023-08-21T00:23:12;28.70;91.90
32809;DHT22;19159;48.178;16.386;2023-08-21T00:25:38;28.70;92.00
32809;DHT22;19159;48.178;16.386;2023-08-21T00:28:04;28.60;92.00
32809;DHT22;19159;48.178;16.386;2023-08-21T00:30:29;28.60;92.10
32809;DHT22;19159;48.178;16.386;2023-08-21T00:32:55;28.60;92.10
32809;DHT22;19159;48.178;16.386;2023-08-21T00:35:20;28.60;92.20
32809;DHT22;19159;48.178;16.386;2023-08-21T00:37:46;28.60;92.20
32809;DHT22;19159;48.178;16.386;2023-08-21T00:40:12;28.60;92.20
32809;DHT22;19159;48.178;16.386;2023-08-21T00:42:38;28.60;92.20
32809;DHT22;19159;48.178;16.386;2023-08-21T00:45:04;28.60;92.10
32809;DHT22;19159;48.178;16.386;2023-08-21T00:47:29;28.70;92.00
32809;DHT22;19159;48.178;16.386;2023-08-21T00:49:55;28.80;91.90
32809;DHT22;19159;48.178;16.386;2023-08-21T00:52:21;28.70;91.80
32809;DHT22;19159;48.178;16.386;2023-08-21T00:54:47;28.70;91.80
32809;DHT22;19159;48.178;16.386;2023-08-21T00:57:14;28.70;91.80
32809;DHT22;19159;48.178;16.386;2023-08-21T00:59:40;28.70;91.70
32809;DHT22;19159;48.178;16.386;2023-08-21T01:02:05;28.60;91.70
32809;DHT22;19159;48.178;16.386;2023-08-21T01:04:31;28.60;91.80
32809;DHT22;19159;48.178;16.386;2023-08-21T01:06:57;28.50;91.90
32809;DHT22;19159;48.178;16.386;2023-08-21T01:09:45;28.50;92.30
32809;DHT22;19159;48.178;16.386;2023-08-21T01:12:35;28.40;92.10
32809;DHT22;19159;48.178;16.386;2023-08-21T01:15:08;28.40;92.10
32809;DHT22;19159;48.178;16.386;2023-08-21T01:17:36;28.40;92.00
32809;DHT22;19159;48.178;16.386;2023-08-21T01:20:03;28.50;92.00
32809;DHT22;19159;48.178;16.386;2023-08-21T01:22:37;28.50;92.00
32809;DHT22;19159;48.178;16.386;2023-08-21T01:25:07;28.50;92.00
32809;DHT22;19159;48.178;16.386;2023-08-21T01:27:34;28.50;92.00
32809;DHT22;19159;48.178;16.386;2023-08-21T01:30:04;28.40;92.10
32809;DHT22;19159;48.178;16.386;2023-08-21T01:34:57;28.40;92.20
32809;DHT22;19159;48.178;16.386;2023-08-21T01:37:24;28.40;92.30
32809;DHT22;19159;48.178;16.386;2023-08-21T01:39:51;28.40;92.30
32809;DHT22;19159;48.178;16.386;2023-08-21T01:42:16;28.30;92.30
32809;DHT22;19159;48.178;16.386;2023-08-21T01:44:42;28.40;92.30
32809;DHT22;19159;48.178;16.386;2023-08-21T01:47:11;28.40;92.30
32809;DHT22;19159;48.178;16.386;2023-08-21T01:49:37;28.40;92.30
32809;DHT22;19159;48.178;16.386;2023-08-21T01:52:02;28.40;92.30
32809;DHT22;19159;48.178;16.386;2023-08-21T01:54:28;28.40;92.30
32809;DHT22;19159;48.178;16.386;2023-08-21T01:56:54;28.40;92.30
32809;DHT22;19159;48.178;16.386;2023-08-21T01:59:20;28.40;92.30
32809;DHT22;19159;48.178;16.386;2023-08-21T02:01:45;28.40;92.30
32809;DHT22;19159;48.178;16.386;2023-08-21T02:04:11;28.40;92.40
32809;DHT22;19159;48.178;16.386;2023-08-21T02:06:36;28.40;92.40
32809;DHT22;19159;48.178;16.386;2023-08-21T02:09:02;28.40;92.60
32809;DHT22;19159;48.178;16.386;2023-08-21T02:11:28;28.50;92.90
32809;DHT22;19159;48.178;16.386;2023-08-21T02:13:53;28.50;92.50
32809;DHT22;19159;48.178;16.386;2023-08-21T02:16:19;28.40;92.40
32809;DHT22;19159;48.178;16.386;2023-08-21T02:18:47;28.40;92.80
32809;DHT22;19159;48.178;16.386;2023-08-21T02:21:13;28.40;92.50
32809;DHT22;19159;48.178;16.386;2023-08-21T02:23:39;28.40;92.60
32809;DHT22;19159;48.178;16.386;2023-08-21T02:26:05;28.40;92.60
32809;DHT22;19159;48.178;16.386;2023-08-21T02:28:30;28.40;92.50
32809;DHT22;19159;48.178;16.386;2023-08-21T02:30:56;28.40;92.50
32809;DHT22;19159;48.178;16.386;2023-08-21T02:33:21;28.40;92.50
32809;DHT22;19159;48.178;16.386;2023-08-21T02:35:47;28.40;92.50
32809;DHT22;19159;48.178;16.386;2023-08-21T02:38:12;28.40;92.50
32809;DHT22;19159;48.178;16.386;2023-08-21T02:40:38;28.40;92.80
32809;DHT22;19159;48.178;16.386;2023-08-21T02:43:04;28.40;92.70
32809;DHT22;19159;48.178;16.386;2023-08-21T02:45:30;28.40;92.60
32809;DHT22;19159;48.178;16.386;2023-08-21T02:47:56;28.30;92.60
32809;DHT22;19159;48.178;16.386;2023-08-21T02:50:21;28.30;92.70
32809;DHT22;19159;48.178;16.386;2023-08-21T02:52:47;28.20;92.70
32809;DHT22;19159;48.178;16.386;2023-08-21T02:55:13;28.20;92.80
32809;DHT22;19159;48.178;16.386;2023-08-21T02:57:39;28.20;92.80
32809;DHT22;19159;48.178;16.386;2023-08-21T03:00:05;28.20;92.80
32809;DHT22;19159;48.178;16.386;2023-08-21T03:02:33;28.10;92.70
32809;DHT22;19159;48.178;16.386;2023-08-21T03:04:59;28.10;92.80
32809;DHT22;19159;48.178;16.386;2023-08-21T03:07:24;28.00;92.80
32809;DHT22;19159;48.178;16.386;2023-08-21T03:09:50;27.90;92.90
32809;DHT22;19159;48.178;16.386;2023-08-21T03:12:16;27.90;93.00
32809;DHT22;19159;48.178;16.386;2023-08-21T03:14:41;27.90;93.00
32809;DHT22;19159;48.178;16.386;2023-08-21T03:17:07;27.90;93.10
32809;DHT22;19159;48.178;16.386;2023-08-21T03:19:33;27.80;93.10
32809;DHT22;19159;48.178;16.386;2023-08-21T03:21:58;27.70;93.10
32809;DHT22;19159;48.178;16.386;2023-08-21T03:24:24;27.70;93.30
32809;DHT22;19159;48.178;16.386;2023-08-21T03:26:49;27.50;93.40
32809;DHT22;19159;48.178;16.386;2023-08-21T03:29:15;27.50;93.60
32809;DHT22;19159;48.178;16.386;2023-08-21T03:31:41;27.50;93.60
32809;DHT22;19159;48.178;16.386;2023-08-21T03:34:06;27.50;93.60
32809;DHT22;19159;48.178;16.386;2023-08-21T03:36:32;27.50;93.70
32809;DHT22;19159;48.178;16.386;2023-08-21T03:38:59;27.50;93.70
32809;DHT22;19159;48.178;16.386;2023-08-21T03:41:25;27.50;93.60
32809;DHT22;19159;48.178;16.386;2023-08-21T03:43:51;27.50;93.70
32809;DHT22;19159;48.178;16.386;2023-08-21T03:46:16;27.50;93.70
32809;DHT22;19159;48.178;16.386;2023-08-21T03:48:43;27.50;93.70
32809;DHT22;19159;48.178;16.386;2023-08-21T03:51:08;27.50;93.70
32809;DHT22;19159;48.178;16.386;2023-08-21T03:53:34;27.50;93.70
32809;DHT22;19159;48.178;16.386;2023-08-21T03:56:00;27.50;93.70
32809;DHT22;19159;48.178;16.386;2023-08-21T03:58:25;27.50;93.70
32809;DHT22;19159;48.178;16.386;2023-08-21T04:00:52;27.50;93.70
32809;DHT22;19159;48.178;16.386;2023-08-21T04:03:18;27.50;93.70
32809;DHT22;19159;48.178;16.386;2023-08-21T04:05:44;27.60;93.60
32809;DHT22;19159;48.178;16.386;2023-08-21T04:08:09;27.60;93.60
32809;DHT22;19159;48.178;16.386;2023-08-21T04:10:35;27.50;93.60
32809;DHT22;19159;48.178;16.386;2023-08-21T04:13:01;27.50;93.60
32809;DHT22;19159;48.178;16.386;2023-08-21T04:15:26;27.60;93.60
32809;DHT22;19159;48.178;16.386;2023-08-21T04:17:52;27.60;93.60
32809;DHT22;19159;48.178;16.386;2023-08-21T04:20:19;27.60;93.60
32809;DHT22;19159;48.178;16.386;2023-08-21T04:22:47;27.60;93.70
32809;DHT22;19159;48.178;16.386;2023-08-21T04:25:12;27.60;93.70
32809;DHT22;19159;48.178;16.386;2023-08-21T04:27:38;27.60;93.60
32809;DHT22;19159;48.178;16.386;2023-08-21T04:30:04;27.60;93.60
32809;DHT22;19159;48.178;16.386;2023-08-21T04:32:31;27.70;93.60
32809;DHT22;19159;48.178;16.386;2023-08-21T04:34:56;27.70;93.60
32809;DHT22;19159;48.178;16.386;2023-08-21T04:37:23;27.70;93.60
32809;DHT22;19159;48.178;16.386;2023-08-21T04:39:54;27.70;93.50
32809;DHT22;19159;48.178;16.386;2023-08-21T04:42:20;27.80;93.50
32809;DHT22;19159;48.178;16.386;2023-08-21T04:44:46;27.80;93.40
32809;DHT22;19159;48.178;16.386;2023-08-21T04:47:23;27.90;93.40
32809;DHT22;19159;48.178;16.386;2023-08-21T04:49:50;27.90;93.40
32809;DHT22;19159;48.178;16.386;2023-08-21T04:52:16;27.90;93.50
32809;DHT22;19159;48.178;16.386;2023-08-21T04:54:42;27.80;93.50
32809;DHT22;19159;48.178;16.386;2023-08-21T04:57:07;27.80;93.20
32809;DHT22;19159;48.178;16.386;2023-08-21T04:59:34;27.80;93.20
32809;DHT22;19159;48.178;16.386;2023-08-21T05:02:00;27.80;93.30
32809;DHT22;19159;48.178;16.386;2023-08-21T05:04:25;27.80;93.30
32809;DHT22;19159;48.178;16.386;2023-08-21T05:06:51;27.80;93.30
32809;DHT22;19159;48.178;16.386;2023-08-21T05:09:17;27.70;93.20
32809;DHT22;19159;48.178;16.386;2023-08-21T05:11:42;27.70;93.20
32809;DHT22;19159;48.178;16.386;2023-08-21T05:14:08;27.70;93.30
32809;DHT22;19159;48.178;16.386;2023-08-21T05:16:33;27.70;93.40
32809;DHT22;19159;48.178;16.386;2023-08-21T05:18:59;27.80;93.30
32809;DHT22;19159;48.178;16.386;2023-08-21T05:21:24;27.90;93.30
32809;DHT22;19159;48.178;16.386;2023-08-21T05:23:50;28.00;93.20
32809;DHT22;19159;48.178;16.386;2023-08-21T05:26:16;28.10;93.10
32809;DHT22;19159;48.178;16.386;2023-08-21T05:28:41;28.20;93.00
32809;DHT22;19159;48.178;16.386;2023-08-21T05:31:07;28.30;92.90
32809;DHT22;19159;48.178;16.386;2023-08-21T05:33:32;28.40;92.90
32809;DHT22;19159;48.178;16.386;2023-08-21T05:35:58;28.50;92.80
32809;DHT22;19159;48.178;16.386;2023-08-21T05:38:24;28.60;92.70
32809;DHT22;19159;48.178;16.386;2023-08-21T05:40:50;28.60;92.60
32809;DHT22;19159;48.178;16.386;2023-08-21T05:43:19;28.70;92.50
32809;DHT22;19159;48.178;16.386;2023-08-21T05:45:44;28.80;92.50
32809;DHT22;19159;48.178;16.386;2023-08-21T05:48:10;28.80;92.50
32809;DHT22;19159;48.178;16.386;2023-08-21T05:50:36;28.90;92.40
32809;DHT22;19159;48.178;16.386;2023-08-21T05:53:05;29.00;92.40
32809;DHT22;19159;48.178;16.386;2023-08-21T05:55:30;29.00;92.20
32809;DHT22;19159;48.178;16.386;2023-08-21T05:57:56;29.10;92.10
32809;DHT22;19159;48.178;16.386;2023-08-21T06:00:22;29.10;92.10
32809;DHT22;19159;48.178;16.386;2023-08-21T06:02:47;29.10;91.90
32809;DHT22;19159;48.178;16.386;2023-08-21T06:05:13;29.20;92.00
32809;DHT22;19159;48.178;16.386;2023-08-21T06:07:39;29.20;91.90
32809;DHT22;19159;48.178;16.386;2023-08-21T06:10:09;29.20;91.70
32809;DHT22;19159;48.178;16.386;2023-08-21T06:12:39;29.20;91.70
32809;DHT22;19159;48.178;16.386;2023-08-21T06:15:05;29.30;91.70
32809;DHT22;19159;48.178;16.386;2023-08-21T06:17:33;29.30;91.70
32809;DHT22;19159;48.178;16.386;2023-08-21T06:19:58;29.30;91.70
32809;DHT22;19159;48.178;16.386;2023-08-21T06:22:25;29.40;91.70
32809;DHT22;19159;48.178;16.386;2023-08-21T06:24:50;29.50;91.70
32809;DHT22;19159;48.178;16.386;2023-08-21T06:27:16;29.50;91.60
32809;DHT22;19159;48.178;16.386;2023-08-21T06:29:41;29.60;91.50
32809;DHT22;19159;48.178;16.386;2023-08-21T06:32:07;29.80;91.40
32809;DHT22;19159;48.178;16.386;2023-08-21T06:34:33;29.80;91.30
32809;DHT22;19159;48.178;16.386;2023-08-21T06:36:58;29.90;91.30
32809;DHT22;19159;48.178;16.386;2023-08-21T06:39:25;29.90;91.30
32809;DHT22;19159;48.178;16.386;2023-08-21T06:41:51;29.90;91.30
32809;DHT22;19159;48.178;16.386;2023-08-21T06:44:17;30.00;91.40
32809;DHT22;19159;48.178;16.386;2023-08-21T06:46:42;30.10;91.30
32809;DHT22;19159;48.178;16.386;2023-08-21T06:49:08;30.10;91.20
32809;DHT22;19159;48.178;16.386;2023-08-21T06:51:34;30.20;91.20
32809;DHT22;19159;48.178;16.386;2023-08-21T06:54:00;30.30;91.30
32809;DHT22;19159;48.178;16.386;2023-08-21T06:56:26;30.50;91.20
32809;DHT22;19159;48.178;16.386;2023-08-21T06:58:51;30.60;91.10
32809;DHT22;19159;48.178;16.386;2023-08-21T07:01:17;30.80;91.10
32809;DHT22;19159;48.178;16.386;2023-08-21T07:03:43;30.90;90.90
32809;DHT22;19159;48.178;16.386;2023-08-21T07:06:08;31.20;91.00
32809;DHT22;19159;48.178;16.386;2023-08-21T07:08:34;31.30;90.60
32809;DHT22;19159;48.178;16.386;2023-08-21T07:11:02;31.60;90.40
32809;DHT22;19159;48.178;16.386;2023-08-21T07:13:29;32.00;90.20
32809;DHT22;19159;48.178;16.386;2023-08-21T07:15:55;32.30;90.10
32809;DHT22;19159;48.178;16.386;2023-08-21T07:18:20;32.70;89.10
32809;DHT22;19159;48.178;16.386;2023-08-21T07:20:52;33.10;88.70
32809;DHT22;19159;48.178;16.386;2023-08-21T07:23:17;33.50;87.70
32809;DHT22;19159;48.178;16.386;2023-08-21T07:25:43;33.70;86.50
32809;DHT22;19159;48.178;16.386;2023-08-21T07:28:08;34.10;86.00
32809;DHT22;19159;48.178;16.386;2023-08-21T07:30:37;34.50;85.30
32809;DHT22;19159;48.178;16.386;2023-08-21T07:33:04;34.90;83.90
32809;DHT22;19159;48.178;16.386;2023-08-21T07:35:30;35.30;83.20
32809;DHT22;19159;48.178;16.386;2023-08-21T07:37:56;35.60;82.50
32809;DHT22;19159;48.178;16.386;2023-08-21T07:40:22;36.00;81.60
32809;DHT22;19159;48.178;16.386;2023-08-21T07:42:47;36.30;80.60
32809;DHT22;19159;48.178;16.386;2023-08-21T07:45:13;36.70;79.90
32809;DHT22;19159;48.178;16.386;2023-08-21T07:47:38;37.00;79.00
32809;DHT22;19159;48.178;16.386;2023-08-21T07:50:05;37.30;78.60
32809;DHT22;19159;48.178;16.386;2023-08-21T07:52:34;37.50;77.50
32809;DHT22;19159;48.178;16.386;2023-08-21T07:54:59;37.70;75.50
32809;DHT22;19159;48.178;16.386;2023-08-21T07:57:26;37.70;75.50
32809;DHT22;19159;48.178;16.386;2023-08-21T07:59:52;37.80;74.20
32809;DHT22;19159;48.178;16.386;2023-08-21T08:02:18;38.10;73.10
32809;DHT22;19159;48.178;16.386;2023-08-21T08:04:43;38.20;72.60
32809;DHT22;19159;48.178;16.386;2023-08-21T08:07:09;38.20;72.60
32809;DHT22;19159;48.178;16.386;2023-08-21T08:09:35;38.20;71.90
32809;DHT22;19159;48.178;16.386;2023-08-21T08:12:01;38.20;71.70
32809;DHT22;19159;48.178;16.386;2023-08-21T08:14:27;38.30;71.80
32809;DHT22;19159;48.178;16.386;2023-08-21T08:16:52;38.40;71.60
32809;DHT22;19159;48.178;16.386;2023-08-21T08:19:18;38.40;71.00
32809;DHT22;19159;48.178;16.386;2023-08-21T08:21:43;38.40;70.80
32809;DHT22;19159;48.178;16.386;2023-08-21T08:24:09;38.60;71.00
32809;DHT22;19159;48.178;16.386;2023-08-21T08:26:35;38.70;69.30
32809;DHT22;19159;48.178;16.386;2023-08-21T08:29:00;38.70;68.20
32809;DHT22;19159;48.178;16.386;2023-08-21T08:31:26;38.60;68.10
32809;DHT22;19159;48.178;16.386;2023-08-21T08:33:53;38.70;69.40
32809;DHT22;19159;48.178;16.386;2023-08-21T08:36:19;38.90;68.20
32809;DHT22;19159;48.178;16.386;2023-08-21T08:38:45;39.10;69.00
32809;DHT22;19159;48.178;16.386;2023-08-21T08:41:19;39.10;68.10
32809;DHT22;19159;48.178;16.386;2023-08-21T08:43:50;39.30;68.10
32809;DHT22;19159;48.178;16.386;2023-08-21T08:46:17;39.20;67.30
32809;DHT22;19159;48.178;16.386;2023-08-21T08:48:43;39.30;67.60
32809;DHT22;19159;48.178;16.386;2023-08-21T08:51:09;39.30;67.20
32809;DHT22;19159;48.178;16.386;2023-08-21T08:53:36;39.50;67.00
32809;DHT22;19159;48.178;16.386;2023-08-21T08:56:02;39.60;68.00
32809;DHT22;19159;48.178;16.386;2023-08-21T08:58:29;39.60;66.10
32809;DHT22;19159;48.178;16.386;2023-08-21T09:00:54;39.20;66.10
32809;DHT22;19159;48.178;16.386;2023-08-21T09:03:20;38.60;67.20
32809;DHT22;19159;48.178;16.386;2023-08-21T09:05:47;38.60;67.60
32809;DHT22;19159;48.178;16.386;2023-08-21T09:08:14;38.50;67.80
32809;DHT22;19159;48.178;16.386;2023-08-21T09:10:41;38.40;68.10
32809;DHT22;19159;48.178;16.386;2023-08-21T09:13:15;38.50;68.30
32809;DHT22;19159;48.178;16.386;2023-08-21T09:15:54;38.40;67.40
32809;DHT22;19159;48.178;16.386;2023-08-21T09:18:20;38.40;68.30
32809;DHT22;19159;48.178;16.386;2023-08-21T09:20:46;38.50;68.10
32809;DHT22;19159;48.178;16.386;2023-08-21T09:23:17;38.60;67.90
32809;DHT22;19159;48.178;16.386;2023-08-21T09:25:45;38.60;68.00
32809;DHT22;19159;48.178;16.386;2023-08-21T09:28:12;38.30;66.90
32809;DHT22;19159;48.178;16.386;2023-08-21T09:30:50;38.10;66.00
32809;DHT22;19159;48.178;16.386;2023-08-21T09:33:23;37.70;67.30
32809;DHT22;19159;48.178;16.386;2023-08-21T09:35:52;37.60;68.00
32809;DHT22;19159;48.178;16.386;2023-08-21T09:38:19;37.60;68.20
32809;DHT22;19159;48.178;16.386;2023-08-21T09:40:51;37.70;68.40
32809;DHT22;19159;48.178;16.386;2023-08-21T09:43:17;37.60;68.70
32809;DHT22;19159;48.178;16.386;2023-08-21T09:45:46;37.60;68.70
32809;DHT22;19159;48.178;16.386;2023-08-21T09:48:12;37.70;68.30
32809;DHT22;19159;48.178;16.386;2023-08-21T09:50:38;37.70;68.10
32809;DHT22;19159;48.178;16.386;2023-08-21T09:53:06;37.70;68.20
32809;DHT22;19159;48.178;16.386;2023-08-21T09:55:32;37.70;68.00
32809;DHT22;19159;48.178;16.386;2023-08-21T09:58:02;37.50;67.30
32809;DHT22;19159;48.178;16.386;2023-08-21T10:00:36;37.30;67.50
32809;DHT22;19159;48.178;16.386;2023-08-21T10:03:07;37.30;67.50
32809;DHT22;19159;48.178;16.386;2023-08-21T10:05:40;37.30;67.20
32809;DHT22;19159;48.178;16.386;2023-08-21T10:08:07;37.30;67.70
32809;DHT22;19159;48.178;16.386;2023-08-21T10:10:35;37.40;67.10
32809;DHT22;19159;48.178;16.386;2023-08-21T10:13:02;37.40;66.90
32809;DHT22;19159;48.178;16.386;2023-08-21T10:15:28;37.40;66.70
32809;DHT22;19159;48.178;16.386;2023-08-21T10:17:55;37.40;66.60
32809;DHT22;19159;48.178;16.386;2023-08-21T10:20:22;37.30;66.90
32809;DHT22;19159;48.178;16.386;2023-08-21T10:22:53;37.30;67.20
32809;DHT22;19159;48.178;16.386;2023-08-21T10:25:24;37.20;67.10
32809;DHT22;19159;48.178;16.386;2023-08-21T10:28:00;37.10;66.60
32809;DHT22;19159;48.178;16.386;2023-08-21T10:30:29;37.00;66.20
32809;DHT22;19159;48.178;16.386;2023-08-21T10:32:57;36.80;66.90
32809;DHT22;19159;48.178;16.386;2023-08-21T10:35:30;37.00;67.20
32809;DHT22;19159;48.178;16.386;2023-08-21T10:40:35;37.30;65.90
32809;DHT22;19159;48.178;16.386;2023-08-21T10:43:01;37.40;65.10
32809;DHT22;19159;48.178;16.386;2023-08-21T10:45:28;37.40;65.20
32809;DHT22;19159;48.178;16.386;2023-08-21T10:47:58;37.40;64.30
32809;DHT22;19159;48.178;16.386;2023-08-21T10:50:25;37.20;64.30
32809;DHT22;19159;48.178;16.386;2023-08-21T10:52:52;37.20;64.20
32809;DHT22;19159;48.178;16.386;2023-08-21T10:55:18;37.00;63.80
32809;DHT22;19159;48.178;16.386;2023-08-21T10:57:47;36.90;63.50
32809;DHT22;19159;48.178;16.386;2023-08-21T11:00:17;36.90;63.60
32809;DHT22;19159;48.178;16.386;2023-08-21T11:02:45;37.20;64.40
32809;DHT22;19159;48.178;16.386;2023-08-21T11:05:12;37.30;62.60
32809;DHT22;19159;48.178;16.386;2023-08-21T11:07:40;37.40;61.20
32809;DHT22;19159;48.178;16.386;2023-08-21T11:10:08;37.40;61.60
32809;DHT22;19159;48.178;16.386;2023-08-21T11:12:35;37.50;62.20
32809;DHT22;19159;48.178;16.386;2023-08-21T11:15:01;37.40;62.10
32809;DHT22;19159;48.178;16.386;2023-08-21T11:17:26;37.30;62.40
32809;DHT22;19159;48.178;16.386;2023-08-21T11:19:52;37.20;62.50
32809;DHT22;19159;48.178;16.386;2023-08-21T11:22:18;37.10;62.60
32809;DHT22;19159;48.178;16.386;2023-08-21T11:24:45;37.10;61.70
32809;DHT22;19159;48.178;16.386;2023-08-21T11:27:14;37.00;62.00
32809;DHT22;19159;48.178;16.386;2023-08-21T11:29:41;37.10;62.00
32809;DHT22;19159;48.178;16.386;2023-08-21T11:32:13;37.20;60.80
32809;DHT22;19159;48.178;16.386;2023-08-21T11:34:40;37.30;59.60
32809;DHT22;19159;48.178;16.386;2023-08-21T11:37:06;37.40;59.60
32809;DHT22;19159;48.178;16.386;2023-08-21T11:39:48;37.40;59.50
32809;DHT22;19159;48.178;16.386;2023-08-21T11:42:15;37.50;58.80
32809;DHT22;19159;48.178;16.386;2023-08-21T11:44:52;37.50;58.60
32809;DHT22;19159;48.178;16.386;2023-08-21T11:47:21;37.60;58.70
32809;DHT22;19159;48.178;16.386;2023-08-21T11:49:48;37.70;59.50
32809;DHT22;19159;48.178;16.386;2023-08-21T11:52:19;37.80;59.80
32809;DHT22;19159;48.178;16.386;2023-08-21T11:54:48;37.90;59.50
32809;DHT22;19159;48.178;16.386;2023-08-21T11:57:15;37.60;59.00
32809;DHT22;19159;48.178;16.386;2023-08-21T11:59:41;37.70;59.10
32809;DHT22;19159;48.178;16.386;2023-08-21T12:02:23;37.70;59.40
32809;DHT22;19159;48.178;16.386;2023-08-21T12:05:05;37.70;59.60
32809;DHT22;19159;48.178;16.386;2023-08-21T12:07:35;37.80;59.70
32809;DHT22;19159;48.178;16.386;2023-08-21T12:10:01;37.90;59.80
32809;DHT22;19159;48.178;16.386;2023-08-21T12:12:27;38.00;59.80
32809;DHT22;19159;48.178;16.386;2023-08-21T12:14:52;38.00;59.90
32809;DHT22;19159;48.178;16.386;2023-08-21T12:17:18;37.90;60.00
32809;DHT22;19159;48.178;16.386;2023-08-21T12:19:44;37.60;59.50
32809;DHT22;19159;48.178;16.386;2023-08-21T12:22:09;37.60;60.00
32809;DHT22;19159;48.178;16.386;2023-08-21T12:24:35;37.60;60.20
32809;DHT22;19159;48.178;16.386;2023-08-21T12:27:03;37.60;60.00
32809;DHT22;19159;48.178;16.386;2023-08-21T12:29:29;37.60;59.90
32809;DHT22;19159;48.178;16.386;2023-08-21T12:31:54;37.40;59.90
32809;DHT22;19159;48.178;16.386;2023-08-21T12:34:20;37.50;60.20
32809;DHT22;19159;48.178;16.386;2023-08-21T12:36:45;37.50;59.20
32809;DHT22;19159;48.178;16.386;2023-08-21T12:39:11;37.20;59.60
32809;DHT22;19159;48.178;16.386;2023-08-21T12:41:37;37.10;59.60
32809;DHT22;19159;48.178;16.386;2023-08-21T12:44:03;37.20;60.20
32809;DHT22;19159;48.178;16.386;2023-08-21T12:46:29;37.00;60.00
32809;DHT22;19159;48.178;16.386;2023-08-21T12:48:56;37.00;60.00
32809;DHT22;19159;48.178;16.386;2023-08-21T12:51:22;37.00;60.10
32809;DHT22;19159;48.178;16.386;2023-08-21T12:53:48;37.10;59.90
32809;DHT22;19159;48.178;16.386;2023-08-21T12:56:13;36.80;59.50
32809;DHT22;19159;48.178;16.386;2023-08-21T12:58:39;36.70;60.10
32809;DHT22;19159;48.178;16.386;2023-08-21T13:01:05;36.70;60.30
32809;DHT22;19159;48.178;16.386;2023-08-21T13:03:32;36.70;60.30
32809;DHT22;19159;48.178;16.386;2023-08-21T13:05:58;36.80;60.10
32809;DHT22;19159;48.178;16.386;2023-08-21T13:08:23;36.80;59.60
32809;DHT22;19159;48.178;16.386;2023-08-21T13:10:49;36.70;59.30
32809;DHT22;19159;48.178;16.386;2023-08-21T13:13:14;36.80;59.70
32809;DHT22;19159;48.178;16.386;2023-08-21T13:15:40;36.80;60.00
32809;DHT22;19159;48.178;16.386;2023-08-21T13:18:06;36.90;60.00
32809;DHT22;19159;48.178;16.386;2023-08-21T13:20:31;36.80;59.40
32809;DHT22;19159;48.178;16.386;2023-08-21T13:22:57;36.80;58.80
32809;DHT22;19159;48.178;16.386;2023-08-21T13:25:23;36.80;59.10
32809;DHT22;19159;48.178;16.386;2023-08-21T13:27:53;36.70;58.70
32809;DHT22;19159;48.178;16.386;2023-08-21T13:30:18;36.60;58.10
32809;DHT22;19159;48.178;16.386;2023-08-21T13:32:45;36.60;58.30
32809;DHT22;19159;48.178;16.386;2023-08-21T13:35:11;36.60;57.80
32809;DHT22;19159;48.178;16.386;2023-08-21T13:37:38;36.70;58.70
32809;DHT22;19159;48.178;16.386;2023-08-21T13:40:05;36.80;59.10
32809;DHT22;19159;48.178;16.386;2023-08-21T13:42:44;36.80;59.10
32809;DHT22;19159;48.178;16.386;2023-08-21T13:45:12;36.90;58.00
32809;DHT22;19159;48.178;16.386;2023-08-21T13:47:43;36.80;57.60
32809;DHT22;19159;48.178;16.386;2023-08-21T13:50:10;36.80;58.10
32809;DHT22;19159;48.178;16.386;2023-08-21T13:52:36;36.80;58.20
32809;DHT22;19159;48.178;16.386;2023-08-21T13:55:02;36.60;58.70
32809;DHT22;19159;48.178;16.386;2023-08-21T13:57:28;36.70;58.80
32809;DHT22;19159;48.178;16.386;2023-08-21T13:59:54;36.40;59.10
32809;DHT22;19159;48.178;16.386;2023-08-21T14:02:20;36.50;59.20
32809;DHT22;19159;48.178;16.386;2023-08-21T14:04:46;36.40;58.80
32809;DHT22;19159;48.178;16.386;2023-08-21T14:07:12;36.30;58.70
32809;DHT22;19159;48.178;16.386;2023-08-21T14:09:38;36.40;58.50
32809;DHT22;19159;48.178;16.386;2023-08-21T14:12:04;36.30;57.90
32809;DHT22;19159;48.178;16.386;2023-08-21T14:14:32;36.30;57.70
32809;DHT22;19159;48.178;16.386;2023-08-21T14:16:58;36.40;58.10
32809;DHT22;19159;48.178;16.386;2023-08-21T14:19:24;36.60;58.30
32809;DHT22;19159;48.178;16.386;2023-08-21T14:21:50;36.70;58.10
32809;DHT22;19159;48.178;16.386;2023-08-21T14:24:15;36.70;56.70
32809;DHT22;19159;48.178;16.386;2023-08-21T14:26:42;36.80;55.60
32809;DHT22;19159;48.178;16.386;2023-08-21T14:29:07;36.80;54.80
32809;DHT22;19159;48.178;16.386;2023-08-21T14:31:33;36.80;54.30
32809;DHT22;19159;48.178;16.386;2023-08-21T14:33:59;36.70;54.10
32809;DHT22;19159;48.178;16.386;2023-08-21T14:36:25;36.70;54.40
32809;DHT22;19159;48.178;16.386;2023-08-21T14:38:50;36.60;54.10
32809;DHT22;19159;48.178;16.386;2023-08-21T14:41:17;36.30;54.40
32809;DHT22;19159;48.178;16.386;2023-08-21T14:43:43;36.40;55.00
32809;DHT22;19159;48.178;16.386;2023-08-21T14:46:09;36.50;54.10
32809;DHT22;19159;48.178;16.386;2023-08-21T14:48:35;36.50;54.30
32809;DHT22;19159;48.178;16.386;2023-08-21T14:51:01;36.60;54.40
32809;DHT22;19159;48.178;16.386;2023-08-21T14:53:27;36.70;54.60
32809;DHT22;19159;48.178;16.386;2023-08-21T14:55:52;36.80;55.10
32809;DHT22;19159;48.178;16.386;2023-08-21T14:58:18;36.90;54.30
32809;DHT22;19159;48.178;16.386;2023-08-21T15:00:43;36.80;54.00
32809;DHT22;19159;48.178;16.386;2023-08-21T15:03:09;36.70;54.10
32809;DHT22;19159;48.178;16.386;2023-08-21T15:05:35;36.70;54.20
32809;DHT22;19159;48.178;16.386;2023-08-21T15:08:00;36.70;54.10
32809;DHT22;19159;48.178;16.386;2023-08-21T15:10:27;36.80;54.30
32809;DHT22;19159;48.178;16.386;2023-08-21T15:12:53;36.80;54.10
32809;DHT22;19159;48.178;16.386;2023-08-21T15:15:19;36.80;54.40
32809;DHT22;19159;48.178;16.386;2023-08-21T15:17:46;36.90;54.30